CheckWX is a tool to help pilots better visualize weather data.  It is not intended as a substitute for an official pre-flight weather briefing.

06:55:07 UTC

EBOS TAF
Ostend-Bruges International Airport
Ostend, Belgium
TAF EBOS 180510Z 1806/1912 04004KT 9999 FEW040 PROB40 TEMPO 1814/1909 4500 SHRA PROB30 TEMPO 1815/1821 TSRA BECMG 1815/1817 34016KT BECMG 1821/1823 09008KT BECMG 1905/1907 18012KT

Jun-18@
06:00 UTC

Jun-18 @ 06:00 UTC

Jun-18@
15:00 UTC

Jun-18 @ 15:00 UTC

TAF EBOS 180510Z 1806/1912 04004KT 9999 FEW040
Wind
  • 040° at 4 KTS
Cloud Levels
  • Few at 4,000' AGL

Jun-18@
14:00 UTC

Jun-18 @ 14:00 UTC

Jun-19@
09:00 UTC

Jun-19 @ 09:00 UTC

PROB40 TEMPO 1814/1909 4500 SHRA

Temporary - 40% Likelihood

Temporary - 40% Likelihood during this time.

Conditions
Rain

Jun-18@
15:00 UTC

Jun-18 @ 15:00 UTC

Jun-18@
21:00 UTC

Jun-18 @ 21:00 UTC

BECMG 1815/1817 34016KT

Becoming

Becoming Conditions expected by Tue, Jun 18, 2019 @ 17:00 UTC

Wind
  • 340° at 16 KTS
Cloud Levels
  • Few at 4,000' AGL

Jun-18@
15:00 UTC

Jun-18 @ 15:00 UTC

Jun-18@
21:00 UTC

Jun-18 @ 21:00 UTC

PROB30 TEMPO 1815/1821 TSRA

Temporary - 30% Likelihood

Temporary - 30% Likelihood during this time.

Conditions
Thunderstorm, Rain

Jun-18@
21:00 UTC

Jun-18 @ 21:00 UTC

Jun-19@
05:00 UTC

Jun-19 @ 05:00 UTC

BECMG 1821/1823 09008KT

Becoming

Becoming Conditions expected by Tue, Jun 18, 2019 @ 23:00 UTC

Wind
  • 090° at 8 KTS
Cloud Levels
  • Few at 4,000' AGL

Jun-19@
05:00 UTC

Jun-19 @ 05:00 UTC

Jun-19@
12:00 UTC

Jun-19 @ 12:00 UTC

BECMG 1905/1907 18012KT

Becoming

Becoming Conditions expected by Wed, Jun 19, 2019 @ 07:00 UTC

Wind
  • 180° at 12 KTS
Cloud Levels
  • Few at 4,000' AGL